Time;durP1;ratioP1;P1;durP2;ratioP2;P2;SDS_P1;SDS_P2;PMS_P1;PMS_P2;Temp;Humidity;BMP_temperature;BMP_pressure;BME280_temperature;BME280_humidity;BME280_pressure;Samples;Min_cycle;Max_cycle;Signal;HPM_P1;HPM_P2
2021/04/21 00:02:00;;;;;;;1.20;0.70;;;5.20;99.90;;;;;;4990188;28;20587;-70
2021/04/21 00:04:28;;;;;;;2.08;1.27;;;5.30;99.90;;;;;;4990817;28;20485;-70
2021/04/21 00:06:55;;;;;;;0.60;0.60;;;5.20;99.90;;;;;;4990648;28;20178;-70
2021/04/21 00:09:22;;;;;;;0.65;0.65;;;5.20;99.90;;;;;;4990689;28;20159;-70
2021/04/21 00:11:50;;;;;;;1.45;0.95;;;5.20;99.90;;;;;;4990795;28;20182;-69
2021/04/21 00:16:48;;;;;;;0.17;0.17;;;4.90;99.90;;;;;;4990534;28;20164;-69
2021/04/21 00:19:18;;;;;;;0.90;0.90;;;4.90;99.90;;;;;;4990293;28;20179;-70
2021/04/21 00:21:46;;;;;;;0.10;0.10;;;5.00;99.90;;;;;;4990754;28;20240;-70
2021/04/21 00:24:14;;;;;;;0.90;0.90;;;5.00;99.90;;;;;;4990592;28;20207;-69
2021/04/21 00:26:42;;;;;;;4.93;3.05;;;5.10;99.90;;;;;;4990374;28;20163;-69
2021/04/21 00:29:10;;;;;;;0.55;0.55;;;5.10;99.90;;;;;;4990348;28;20547;-69
2021/04/21 00:31:38;;;;;;;0.50;0.50;;;5.00;99.90;;;;;;4989063;28;20194;-69
2021/04/21 00:34:06;;;;;;;1.08;0.80;;;5.00;99.90;;;;;;4990248;28;20222;-69
2021/04/21 00:36:35;;;;;;;0.70;0.70;;;5.00;99.90;;;;;;4990373;28;20649;-69
2021/04/21 00:39:03;;;;;;;0.45;0.45;;;4.90;99.90;;;;;;4990404;28;20242;-69
2021/04/21 00:41:54;;;;;;;1.85;1.50;;;4.90;99.90;;;;;;4988932;28;20643;-70
2021/04/21 00:44:42;;;;;;;0.20;0.20;;;4.80;99.90;;;;;;4990279;28;20159;-70
2021/04/21 00:47:15;;;;;;;0.43;0.43;;;4.80;99.90;;;;;;4990412;28;20191;-71
2021/04/21 00:49:57;;;;;;;0.20;0.20;;;4.90;99.90;;;;;;4990259;28;20198;-70
2021/04/21 00:52:54;;;;;;;0.52;0.52;;;4.80;99.90;;;;;;4990130;28;20199;-70
2021/04/21 00:55:44;;;;;;;0.32;0.32;;;4.70;99.90;;;;;;4987584;28;20203;-71
2021/04/21 00:58:19;;;;;;;1.38;0.82;;;4.50;99.90;;;;;;4988414;28;20190;-70
2021/04/21 01:00:47;;;;;;;0.85;0.85;;;4.20;99.90;;;;;;4988420;28;20232;-70
2021/04/21 01:03:24;;;;;;;0.55;0.52;;;4.10;99.90;;;;;;4988314;28;20195;-70
2021/04/21 01:06:05;;;;;;;0.52;0.32;;;3.90;99.90;;;;;;4989819;28;20263;-70
2021/04/21 01:08:55;;;;;;;0.40;0.40;;;3.90;99.90;;;;;;4989737;28;20160;-70
2021/04/21 01:11:27;;;;;;;0.10;0.10;;;3.80;99.90;;;;;;4989606;28;20203;-71
2021/04/21 01:14:01;;;;;;;0.35;0.35;;;3.70;99.90;;;;;;4989049;28;20258;-69
2021/04/21 01:16:30;;;;;;;0.85;0.85;;;3.60;99.90;;;;;;4989736;28;20164;-70
2021/04/21 01:19:00;;;;;;;0.15;0.15;;;3.60;99.90;;;;;;4988282;28;20176;-71
2021/04/21 01:21:37;;;;;;;2.72;2.47;;;3.60;99.90;;;;;;4989490;28;20171;-70
2021/04/21 01:24:11;;;;;;;0.20;0.20;;;3.60;99.90;;;;;;4988120;28;20712;-68
2021/04/21 01:27:07;;;;;;;0.80;0.80;;;3.50;99.90;;;;;;4989474;28;20181;-70
2021/04/21 01:29:38;;;;;;;1.48;1.42;;;3.50;99.90;;;;;;4989341;28;20219;-70
2021/04/21 01:32:19;;;;;;;0.32;0.32;;;3.50;99.90;;;;;;4989217;28;20214;-70
2021/04/21 01:34:47;;;;;;;0.43;0.43;;;3.60;99.90;;;;;;4989223;28;20324;-70
2021/04/21 01:37:21;;;;;;;0.47;0.47;;;3.70;99.90;;;;;;4989331;28;20152;-70
2021/04/21 01:39:55;;;;;;;0.28;0.28;;;3.70;99.90;;;;;;4989264;28;20621;-71
2021/04/21 01:42:27;;;;;;;0.10;0.10;;;3.60;99.90;;;;;;4989017;28;20225;-70
2021/04/21 01:44:56;;;;;;;0.10;0.10;;;3.70;99.90;;;;;;4989057;28;20264;-70
2021/04/21 01:47:22;;;;;;;0.80;0.68;;;3.50;99.90;;;;;;4987375;28;20175;-68
2021/04/21 01:50:03;;;;;;;1.23;1.20;;;3.60;99.90;;;;;;4989049;28;20242;-69
2021/04/21 01:52:43;;;;;;;0.43;0.43;;;3.50;99.90;;;;;;4987658;28;20226;-69
2021/04/21 01:55:15;;;;;;;4.57;2.17;;;3.40;99.90;;;;;;4988962;28;20198;-69
2021/04/21 01:58:03;;;;;;;1.15;0.98;;;3.40;99.90;;;;;;4988687;28;20190;-69
2021/04/21 02:00:38;;;;;;;0.30;0.30;;;3.50;99.90;;;;;;4989275;28;20156;-69
2021/04/21 02:03:22;;;;;;;1.08;0.95;;;3.50;99.90;;;;;;4987493;28;20222;-69
2021/04/21 02:05:54;;;;;;;0.30;0.30;;;3.60;99.90;;;;;;4988795;28;20159;-69
2021/04/21 02:08:33;;;;;;;0.52;0.52;;;3.80;99.90;;;;;;4987370;28;20178;-68
2021/04/21 02:11:16;;;;;;;0.63;0.63;;;3.80;99.90;;;;;;4987398;28;20171;-69
2021/04/21 02:14:03;;;;;;;0.57;0.57;;;3.60;99.90;;;;;;4988752;28;20210;-69
2021/04/21 02:16:38;;;;;;;0.10;0.10;;;3.50;99.90;;;;;;4988860;28;20722;-69
2021/04/21 02:19:25;;;;;;;0.55;0.20;;;3.50;99.90;;;;;;4988715;28;20159;-69
2021/04/21 02:21:51;;;;;;;0.55;0.55;;;3.50;99.90;;;;;;4987793;28;20178;-69
2021/04/21 02:24:22;;;;;;;0.55;0.55;;;3.40;99.90;;;;;;4988990;28;20202;-70
2021/04/21 02:27:05;;;;;;;0.40;0.40;;;3.30;99.90;;;;;;4990461;28;20210;-70
2021/04/21 02:29:48;;;;;;;0.50;0.50;;;3.20;99.90;;;;;;4991318;28;20243;-70
2021/04/21 02:32:36;;;;;;;0.20;0.20;;;3.20;99.90;;;;;;4992438;28;20167;-69
2021/04/21 02:35:13;;;;;;;0.57;0.57;;;3.10;99.90;;;;;;4992272;28;20199;-70
2021/04/21 02:37:54;;;;;;;0.10;0.10;;;3.10;99.90;;;;;;4992352;28;20166;-70
2021/04/21 02:40:39;;;;;;;0.40;0.40;;;3.00;99.90;;;;;;4992441;28;20156;-70
2021/04/21 02:43:24;;;;;;;1.25;1.20;;;3.00;99.90;;;;;;4992492;28;20214;-69
2021/04/21 02:45:56;;;;;;;0.38;0.38;;;3.10;99.90;;;;;;4992465;28;20171;-70
2021/04/21 02:49:00;;;;;;;0.40;0.40;;;3.20;99.90;;;;;;4992361;28;20168;-70
2021/04/21 02:51:41;;;;;;;0.17;0.17;;;3.30;99.90;;;;;;4991199;28;20679;-69
2021/04/21 02:54:28;;;;;;;0.20;0.20;;;3.50;99.90;;;;;;4991929;28;20713;-70
2021/04/21 02:56:57;;;;;;;0.22;0.22;;;3.60;99.90;;;;;;4990662;28;20213;-70
2021/04/21 02:59:50;;;;;;;0.32;0.32;;;3.60;99.90;;;;;;4992232;28;20160;-69
2021/04/21 03:02:29;;;;;;;0.20;0.20;;;3.80;99.90;;;;;;4991985;28;20167;-70
2021/04/21 03:05:27;;;;;;;0.25;0.25;;;3.70;99.90;;;;;;4992223;28;20625;-70
2021/04/21 03:08:17;;;;;;;0.30;0.30;;;3.70;99.90;;;;;;4987872;28;20187;-69
2021/04/21 03:10:55;;;;;;;1.65;1.52;;;3.70;99.90;;;;;;4991957;28;20175;-70
2021/04/21 03:13:30;;;;;;;1.98;1.88;;;3.70;99.90;;;;;;4991706;28;20207;-70
2021/04/21 03:16:02;;;;;;;0.52;0.52;;;3.80;99.90;;;;;;4991855;28;20179;-71
2021/04/21 03:18:30;;;;;;;2.63;1.65;;;3.70;99.90;;;;;;4991813;28;20163;-69
2021/04/21 03:21:15;;;;;;;2.58;1.80;;;3.70;99.90;;;;;;4991358;28;20290;-69
2021/04/21 03:23:43;;;;;;;0.20;0.20;;;3.70;99.90;;;;;;4991563;28;20314;-70
2021/04/21 03:26:11;;;;;;;0.20;0.20;;;3.60;99.90;;;;;;4990581;28;20210;-70
2021/04/21 03:28:41;;;;;;;0.73;0.73;;;3.30;99.90;;;;;;4990016;28;20209;-68
2021/04/21 03:31:10;;;;;;;0.73;0.65;;;3.20;99.90;;;;;;4991464;28;20247;-70
2021/04/21 03:33:36;;;;;;;1.30;1.30;;;3.20;99.90;;;;;;4989725;28;20219;-70
2021/04/21 03:36:04;;;;;;;0.90;0.90;;;3.10;99.90;;;;;;4991376;28;20626;-69
2021/04/21 03:38:31;;;;;;;1.35;1.25;;;2.90;99.90;;;;;;4990259;28;20254;-69
2021/04/21 03:40:59;;;;;;;0.28;0.28;;;2.90;99.90;;;;;;4990110;28;20178;-70
2021/04/21 03:43:27;;;;;;;0.20;0.20;;;2.80;99.90;;;;;;4989850;28;20238;-70
2021/04/21 03:45:54;;;;;;;0.40;0.40;;;2.80;99.90;;;;;;4991284;28;20517;-71
2021/04/21 03:48:20;;;;;;;1.20;1.20;;;2.70;99.90;;;;;;4991210;28;20190;-70
2021/04/21 03:50:53;;;;;;;1.48;1.40;;;2.70;99.90;;;;;;4991168;28;20164;-70
2021/04/21 03:53:23;;;;;;;0.30;0.30;;;2.60;99.90;;;;;;4990258;28;20386;-71
2021/04/21 03:55:56;;;;;;;0.55;0.55;;;2.70;99.90;;;;;;4990938;28;20152;-70
2021/04/21 03:58:27;;;;;;;0.43;0.43;;;2.70;99.90;;;;;;4990810;28;20215;-70
2021/04/21 04:01:15;;;;;;;0.50;0.50;;;2.70;99.90;;;;;;4990767;28;20264;-70
2021/04/21 04:03:47;;;;;;;0.75;0.75;;;2.70;99.90;;;;;;4990726;28;20199;-70
2021/04/21 04:06:22;;;;;;;0.30;0.30;;;2.80;99.90;;;;;;4989593;28;20190;-70
2021/04/21 04:08:57;;;;;;;1.55;1.40;;;2.80;99.90;;;;;;4990765;28;20186;-70
2021/04/21 04:11:27;;;;;;;0.75;0.75;;;2.80;99.90;;;;;;4989217;28;20183;-70
2021/04/21 04:14:05;;;;;;;1.30;1.23;;;2.90;99.90;;;;;;4990521;28;20250;-69
2021/04/21 04:16:32;;;;;;;0.40;0.40;;;2.90;99.90;;;;;;4989220;28;20171;-69
2021/04/21 04:19:01;;;;;;;0.20;0.20;;;2.90;99.90;;;;;;4990564;28;20163;-70
2021/04/21 04:21:35;;;;;;;1.38;1.15;;;3.00;99.90;;;;;;4990432;28;20214;-70
2021/04/21 04:24:02;;;;;;;2.70;1.23;;;3.20;99.90;;;;;;4990398;28;20195;-70
2021/04/21 04:26:31;;;;;;;8.20;2.65;;;3.30;99.90;;;;;;4990378;28;20187;-69
2021/04/21 04:28:58;;;;;;;0.55;0.55;;;3.40;99.90;;;;;;4990500;28;20476;-69
2021/04/21 04:31:26;;;;;;;0.93;0.93;;;3.50;99.90;;;;;;4990156;28;20250;-69
2021/04/21 04:33:56;;;;;;;0.40;0.40;;;3.50;99.90;;;;;;4989985;28;20222;-69
2021/04/21 04:36:24;;;;;;;0.80;0.77;;;3.60;99.90;;;;;;4990161;28;20164;-69
2021/04/21 04:38:51;;;;;;;0.85;0.85;;;3.70;99.90;;;;;;4988787;28;20242;-69
2021/04/21 04:41:18;;;;;;;0.10;0.10;;;3.90;99.90;;;;;;4988442;28;20186;-70
2021/04/21 04:43:46;;;;;;;0.95;0.85;;;4.20;99.90;;;;;;4989882;28;20230;-69
2021/04/21 04:46:16;;;;;;;1.05;0.95;;;4.60;99.90;;;;;;4989848;28;20178;-69
2021/04/21 04:48:49;;;;;;;0.50;0.50;;;5.10;99.90;;;;;;4989664;28;20228;-69
2021/04/21 04:51:18;;;;;;;1.35;1.25;;;5.50;99.90;;;;;;4987693;28;20250;-70
2021/04/21 04:53:45;;;;;;;0.20;0.20;;;5.90;99.90;;;;;;4989465;28;20225;-69
2021/04/21 04:56:11;;;;;;;1.20;1.10;;;6.30;99.90;;;;;;4988532;28;20182;-68
2021/04/21 04:58:41;;;;;;;0.50;0.50;;;6.40;99.90;;;;;;4989664;28;20261;-69
2021/04/21 05:01:09;;;;;;;0.35;0.35;;;6.80;99.90;;;;;;4989882;28;20249;-70
2021/04/21 05:03:56;;;;;;;1.20;1.00;;;7.00;99.90;;;;;;4989583;28;20206;-70
2021/04/21 05:06:30;;;;;;;2.50;2.33;;;7.30;99.90;;;;;;4989904;28;20163;-70
2021/04/21 05:09:02;;;;;;;0.75;0.75;;;7.60;99.90;;;;;;4988424;28;20202;-70
2021/04/21 05:11:29;;;;;;;1.85;1.75;;;7.40;99.90;;;;;;4989685;28;20163;-68
2021/04/21 05:13:58;;;;;;;1.55;1.35;;;7.40;99.90;;;;;;4987835;28;20716;-69
2021/04/21 05:16:25;;;;;;;0.60;0.38;;;7.80;99.90;;;;;;4989282;28;20251;-70
2021/04/21 05:18:56;;;;;;;1.25;0.82;;;8.20;99.90;;;;;;4987921;28;20225;-69
2021/04/21 05:21:41;;;;;;;0.20;0.20;;;8.10;99.90;;;;;;4989298;28;20219;-69
2021/04/21 05:24:31;;;;;;;1.38;1.27;;;8.40;99.90;;;;;;4989266;28;20195;-69
2021/04/21 05:26:57;;;;;;;2.15;1.98;;;8.60;99.90;;;;;;4989113;28;20239;-70
2021/04/21 05:29:45;;;;;;;0.28;0.28;;;8.90;99.90;;;;;;4989225;28;20175;-70
2021/04/21 05:32:53;;;;;;;0.73;0.73;;;9.60;99.90;;;;;;4967815;29;20210;-69
2021/04/21 05:35:44;;;;;;;0.40;0.40;;;10.10;99.90;;;;;;4968403;29;20231;-71
2021/04/21 05:38:30;;;;;;;0.80;0.80;;;10.20;99.90;;;;;;4968424;29;20180;-70
2021/04/21 05:41:34;;;;;;;0.65;0.65;;;10.50;99.90;;;;;;4968349;29;20176;-69
2021/04/21 05:44:24;;;;;;;0.75;0.75;;;10.60;99.90;;;;;;4969474;28;20203;-69
2021/04/21 05:47:23;;;;;;;1.23;1.13;;;10.70;99.90;;;;;;4969511;28;20176;-70
2021/04/21 05:50:18;;;;;;;0.35;0.35;;;11.20;99.90;;;;;;4969693;28;20164;-69
2021/04/21 05:53:15;;;;;;;0.40;0.40;;;11.40;99.90;;;;;;4953216;29;20208;-70
2021/04/21 05:56:09;;;;;;;0.30;0.30;;;11.60;99.90;;;;;;4969498;28;20160;-70
2021/04/21 05:58:37;;;;;;;0.60;0.60;;;11.40;99.90;;;;;;4969491;28;20172;-70
2021/04/21 06:01:06;;;;;;;1.23;1.20;;;11.90;99.90;;;;;;4973536;28;20286;-70
2021/04/21 06:03:39;;;;;;;0.60;0.60;;;11.90;99.90;;;;;;4988773;28;20274;-70
2021/04/21 06:06:05;;;;;;;2.42;2.22;;;12.00;99.90;;;;;;4988877;28;20183;-70
2021/04/21 06:08:32;;;;;;;1.45;1.35;;;12.20;99.90;;;;;;4988706;28;20163;-70
2021/04/21 06:10:59;;;;;;;0.90;0.90;;;12.50;99.90;;;;;;4987184;28;20178;-71
2021/04/21 06:13:33;;;;;;;1.08;1.08;;;12.70;99.90;;;;;;4988543;28;20199;-71
2021/04/21 06:16:00;;;;;;;0.40;0.40;;;12.80;99.90;;;;;;4988655;28;20168;-70
2021/04/21 06:18:26;;;;;;;0.77;0.77;;;12.90;99.90;;;;;;4987364;28;20585;-70
2021/04/21 06:20:53;;;;;;;1.80;1.65;;;12.80;99.90;;;;;;4987310;28;20262;-70
2021/04/21 06:23:21;;;;;;;2.33;1.17;;;12.80;99.90;;;;;;4988705;28;20187;-70
2021/04/21 06:25:59;;;;;;;0.52;0.52;;;13.20;99.90;;;;;;4987245;28;20198;-70
2021/04/21 06:28:25;;;;;;;1.17;0.85;;;13.60;99.90;;;;;;4988660;28;20174;-70
2021/04/21 06:31:12;;;;;;;1.15;1.15;;;13.90;99.90;;;;;;4988596;28;20155;-70
2021/04/21 06:33:42;;;;;;;1.05;0.93;;;14.50;99.90;;;;;;4988565;28;20259;-71
2021/04/21 06:36:10;;;;;;;1.48;1.38;;;15.20;99.90;;;;;;4982226;28;20638;-71
2021/04/21 06:38:38;;;;;;;1.10;0.73;;;15.90;99.90;;;;;;4988126;28;20178;-71
2021/04/21 06:41:04;;;;;;;0.75;0.75;;;16.30;99.90;;;;;;4988755;28;20274;-72
2021/04/21 06:43:33;;;;;;;1.67;1.58;;;16.40;99.90;;;;;;4988357;28;20250;-70
2021/04/21 06:46:00;;;;;;;0.80;0.80;;;16.80;99.90;;;;;;4988738;28;20163;-71
2021/04/21 06:48:29;;;;;;;1.13;1.13;;;17.60;99.90;;;;;;4986595;28;20183;-70
2021/04/21 06:51:05;;;;;;;1.00;0.95;;;18.30;99.90;;;;;;4988538;28;20168;-70
2021/04/21 06:53:31;;;;;;;2.17;1.67;;;19.40;99.90;;;;;;4988275;28;20209;-70
2021/04/21 06:55:58;;;;;;;1.33;1.17;;;19.20;99.90;;;;;;4987329;28;20202;-70
2021/04/21 06:58:30;;;;;;;1.92;1.83;;;19.30;99.90;;;;;;4987936;28;20235;-70
2021/04/21 07:01:07;;;;;;;2.40;1.55;;;18.80;99.90;;;;;;4986671;28;20182;-70
2021/04/21 07:03:33;;;;;;;0.85;0.70;;;19.00;99.90;;;;;;4988419;28;20186;-73
2021/04/21 07:05:59;;;;;;;2.20;1.95;;;18.80;99.90;;;;;;4988596;28;20163;-71
2021/04/21 07:08:32;;;;;;;1.50;0.93;;;19.50;99.90;;;;;;4988141;28;20163;-71
2021/04/21 07:11:00;;;;;;;1.15;1.05;;;20.00;99.90;;;;;;4987596;28;20182;-70
2021/04/21 07:13:32;;;;;;;1.05;0.43;;;20.20;99.90;;;;;;4991987;28;20199;-71
2021/04/21 07:16:06;;;;;;;0.82;0.82;;;20.50;99.90;;;;;;4991896;28;20158;-70
2021/04/21 07:18:38;;;;;;;2.40;1.45;;;19.60;99.90;;;;;;4991579;28;20151;-70
2021/04/21 07:21:07;;;;;;;2.15;1.80;;;19.40;99.90;;;;;;4990888;28;20227;-70
2021/04/21 07:23:37;;;;;;;2.28;2.08;;;19.00;99.90;;;;;;4989105;28;20203;-70
2021/04/21 07:26:04;;;;;;;0.75;0.70;;;19.00;99.90;;;;;;4987182;28;20162;-69
2021/04/21 07:28:30;;;;;;;5.45;1.67;;;19.00;99.90;;;;;;4991596;28;20163;-69
2021/04/21 07:31:09;;;;;;;7.95;1.80;;;18.50;99.90;;;;;;4989450;28;20198;-69
2021/04/21 07:33:43;;;;;;;12.90;1.27;;;19.00;99.90;;;;;;4991262;28;20196;-68
2021/04/21 07:36:15;;;;;;;1.90;1.80;;;20.00;99.90;;;;;;4972197;28;20662;-68
2021/04/21 07:38:53;;;;;;;1.00;0.82;;;21.00;99.90;;;;;;4970803;29;20243;-69
2021/04/21 07:41:57;;;;;;;1.08;0.95;;;22.30;99.90;;;;;;4971624;28;20195;-68
2021/04/21 07:44:36;;;;;;;9.65;1.75;;;21.50;99.90;;;;;;4950548;29;20774;-69
2021/04/21 07:47:08;;;;;;;1.05;0.98;;;21.10;99.90;;;;;;4946077;29;20272;-69
2021/04/21 07:49:35;;;;;;;1.33;1.23;;;21.30;99.90;;;;;;4967058;29;20273;-68
2021/04/21 07:52:03;;;;;;;0.75;0.68;;;21.10;99.90;;;;;;4969024;29;20175;-68
2021/04/21 07:54:30;;;;;;;1.90;1.08;;;20.70;99.90;;;;;;4954061;29;20215;-67
2021/04/21 07:57:04;;;;;;;1.98;1.67;;;20.50;99.90;;;;;;4934245;29;20183;-68
2021/04/21 07:59:35;;;;;;;1.50;1.45;;;20.70;99.90;;;;;;4948915;29;20648;-69
2021/04/21 08:02:21;;;;;;;0.75;0.75;;;21.50;99.90;;;;;;4949576;29;20188;-70
2021/04/21 08:04:50;;;;;;;0.50;0.50;;;22.00;99.90;;;;;;4949326;29;20203;-69
2021/04/21 08:07:29;;;;;;;9.10;1.13;;;22.10;99.90;;;;;;4950161;29;20172;-67
2021/04/21 08:09:56;;;;;;;0.55;0.55;;;21.90;99.90;;;;;;4965402;29;20248;-69
2021/04/21 08:12:25;;;;;;;2.15;2.05;;;20.70;99.90;;;;;;4968534;29;20736;-69
2021/04/21 08:14:56;;;;;;;1.60;0.82;;;20.70;99.90;;;;;;4959174;29;20218;-69
2021/04/21 08:17:21;;;;;;;1.27;1.23;;;20.70;99.90;;;;;;4970039;29;20199;-69
2021/04/21 08:19:52;;;;;;;1.25;0.73;;;20.70;99.90;;;;;;4971214;28;20219;-70
2021/04/21 08:22:29;;;;;;;6.50;1.13;;;21.90;99.90;;;;;;4978588;28;20170;-67
2021/04/21 08:24:57;;;;;;;1.25;1.05;;;23.40;99.90;;;;;;4972649;28;20221;-68
2021/04/21 08:27:24;;;;;;;0.73;0.73;;;24.00;99.90;;;;;;4988777;28;20202;-69
2021/04/21 08:29:51;;;;;;;1.38;1.27;;;24.30;99.90;;;;;;4981547;28;20214;-69
2021/04/21 08:32:21;;;;;;;0.73;0.73;;;22.90;99.90;;;;;;4982768;28;20175;-69
2021/04/21 08:34:50;;;;;;;4.20;0.55;;;22.00;99.90;;;;;;4974611;28;20226;-69
2021/04/21 08:37:17;;;;;;;1.05;1.05;;;21.80;99.90;;;;;;4986042;28;20673;-69
2021/04/21 08:39:44;;;;;;;0.60;0.60;;;21.40;99.90;;;;;;4990091;28;20159;-69
2021/04/21 08:42:12;;;;;;;1.13;0.73;;;22.30;99.90;;;;;;4983091;28;20175;-71
2021/04/21 08:44:43;;;;;;;1.10;1.05;;;22.90;99.90;;;;;;4983591;28;20179;-69
2021/04/21 08:47:18;;;;;;;0.50;0.50;;;22.40;99.90;;;;;;4970644;28;20159;-68
2021/04/21 08:49:45;;;;;;;0.52;0.52;;;21.50;99.90;;;;;;4993132;28;20187;-68
2021/04/21 08:52:16;;;;;;;0.40;0.40;;;21.30;99.90;;;;;;4969768;29;20167;-68
2021/04/21 08:54:46;;;;;;;0.20;0.20;;;21.20;99.90;;;;;;4971743;28;20192;-68
2021/04/21 08:57:13;;;;;;;1.15;1.05;;;21.10;99.00;;;;;;4990339;28;20169;-68
2021/04/21 08:59:43;;;;;;;0.80;0.60;;;21.30;99.90;;;;;;4988652;28;20178;-68
2021/04/21 09:02:15;;;;;;;0.52;0.52;;;21.60;99.90;;;;;;4989146;28;20161;-68
2021/04/21 09:04:42;;;;;;;13.63;0.82;;;21.60;99.80;;;;;;4988981;28;20170;-69
2021/04/21 09:07:08;;;;;;;1.35;0.63;;;21.40;99.40;;;;;;4989609;28;20222;-69
2021/04/21 09:09:35;;;;;;;0.50;0.50;;;22.00;99.90;;;;;;4973065;28;20199;-69
2021/04/21 09:12:03;;;;;;;0.73;0.73;;;22.00;99.80;;;;;;4969628;28;20163;-70
2021/04/21 09:14:30;;;;;;;0.82;0.82;;;22.30;99.00;;;;;;4969758;28;20202;-68
2021/04/21 09:16:57;;;;;;;0.90;0.65;;;22.60;97.90;;;;;;4970782;28;20160;-68
2021/04/21 09:19:23;;;;;;;0.70;0.70;;;23.30;98.00;;;;;;4969951;28;20219;-69
2021/04/21 09:22:06;;;;;;;0.95;0.95;;;23.70;95.80;;;;;;4969973;28;20570;-68
2021/04/21 09:24:37;;;;;;;1.02;0.77;;;22.90;96.30;;;;;;4968934;29;20195;-66
2021/04/21 09:27:35;;;;;;;0.40;0.40;;;22.70;96.60;;;;;;4970387;28;20164;-67
2021/04/21 09:30:10;;;;;;;1.23;1.13;;;23.10;94.90;;;;;;4974808;28;20197;-68
2021/04/21 09:32:58;;;;;;;0.38;0.38;;;23.10;97.30;;;;;;4986885;28;20185;-68
2021/04/21 09:35:27;;;;;;;0.47;0.47;;;23.40;96.90;;;;;;4988440;28;20193;-69
2021/04/21 09:38:15;;;;;;;0.30;0.30;;;25.00;94.90;;;;;;4989024;28;20155;-68
2021/04/21 09:40:41;;;;;;;2.15;0.57;;;25.20;92.50;;;;;;4989063;28;20213;-68
2021/04/21 09:43:13;;;;;;;0.60;0.60;;;24.10;92.60;;;;;;4987468;28;20175;-68
2021/04/21 09:45:47;;;;;;;0.68;0.68;;;23.10;95.00;;;;;;4988119;28;20181;-69
2021/04/21 09:48:16;;;;;;;1.27;0.85;;;24.00;92.90;;;;;;4989107;28;20518;-68
2021/04/21 09:50:45;;;;;;;0.80;0.80;;;24.00;91.90;;;;;;4989200;28;20585;-71
2021/04/21 09:53:18;;;;;;;0.30;0.20;;;24.50;92.40;;;;;;4988607;28;20219;-69
2021/04/21 09:56:04;;;;;;;0.75;0.52;;;24.30;90.90;;;;;;4975865;28;20307;-67
2021/04/21 09:58:34;;;;;;;1.13;0.80;;;23.40;91.60;;;;;;4969088;28;20479;-68
2021/04/21 10:01:00;;;;;;;0.30;0.30;;;22.00;92.80;;;;;;4969103;28;20198;-67
2021/04/21 10:03:26;;;;;;;0.43;0.35;;;22.10;92.60;;;;;;4969591;28;20178;-68
2021/04/21 10:05:52;;;;;;;0.80;0.77;;;22.60;91.60;;;;;;4967775;29;20195;-66
2021/04/21 10:08:26;;;;;;;0.98;0.52;;;23.80;90.90;;;;;;4969543;28;20160;-68
2021/04/21 10:11:04;;;;;;;1.20;0.30;;;25.10;90.50;;;;;;4969298;28;20195;-68
2021/04/21 10:13:45;;;;;;;0.70;0.70;;;25.90;90.30;;;;;;4969439;28;20199;-68
2021/04/21 10:16:13;;;;;;;0.95;0.60;;;25.50;87.80;;;;;;4968881;28;20159;-67
2021/04/21 10:18:41;;;;;;;2.72;1.00;;;25.80;88.10;;;;;;4969670;28;20163;-67
2021/04/21 10:21:07;;;;;;;0.50;0.50;;;25.70;88.00;;;;;;4973445;28;20227;-68
2021/04/21 10:23:33;;;;;;;0.90;0.47;;;26.10;86.90;;;;;;4988777;28;20185;-67
2021/04/21 10:26:07;;;;;;;0.75;0.75;;;26.60;84.40;;;;;;4988175;28;20269;-67
2021/04/21 10:28:34;;;;;;;0.93;0.70;;;26.70;84.80;;;;;;4977132;28;20187;-68
2021/04/21 10:31:04;;;;;;;1.75;1.17;;;26.00;82.90;;;;;;4981907;28;20232;-67
2021/04/21 10:33:30;;;;;;;0.50;0.50;;;24.80;84.00;;;;;;4988701;28;20222;-68
2021/04/21 10:35:57;;;;;;;0.32;0.32;;;24.70;84.00;;;;;;4986478;28;20190;-68
2021/04/21 10:38:25;;;;;;;8.05;0.43;;;24.30;82.90;;;;;;4988541;28;20155;-68
2021/04/21 10:41:11;;;;;;;0.30;0.30;;;24.60;86.00;;;;;;4988689;28;20191;-69
2021/04/21 10:43:39;;;;;;;0.30;0.30;;;24.90;83.80;;;;;;4987454;28;20182;-68
2021/04/21 10:46:06;;;;;;;0.63;0.63;;;25.70;83.00;;;;;;4987112;28;20171;-69
2021/04/21 10:48:40;;;;;;;1.08;1.08;;;26.10;85.70;;;;;;4992494;28;20167;-69
2021/04/21 10:51:38;;;;;;;0.57;0.22;;;25.50;82.20;;;;;;4990756;28;20197;-69
2021/04/21 10:54:07;;;;;;;1.10;0.73;;;24.40;82.80;;;;;;4992246;28;20210;-70
2021/04/21 10:56:34;;;;;;;0.98;0.70;;;24.40;87.60;;;;;;4990616;28;20197;-69
2021/04/21 10:59:02;;;;;;;0.60;0.60;;;24.00;86.00;;;;;;4992171;28;20167;-70
2021/04/21 11:01:36;;;;;;;1.25;1.17;;;22.70;86.50;;;;;;4991865;28;20191;-69
2021/04/21 11:04:04;;;;;;;0.75;0.75;;;22.60;89.10;;;;;;4990387;28;20175;-69
2021/04/21 11:06:39;;;;;;;0.45;0.40;;;23.00;85.20;;;;;;4990778;28;20246;-69
2021/04/21 11:09:09;;;;;;;0.30;0.30;;;24.20;84.00;;;;;;4990471;28;20217;-70
2021/04/21 11:11:46;;;;;;;0.20;0.20;;;24.60;85.00;;;;;;4990782;28;20261;-71
2021/04/21 11:14:37;;;;;;;0.13;0.13;;;24.20;83.90;;;;;;4990762;28;20202;-70
2021/04/21 11:17:07;;;;;;;0.50;0.45;;;23.70;85.70;;;;;;4991762;28;20170;-70
2021/04/21 11:19:43;;;;;;;0.38;0.38;;;23.80;87.90;;;;;;4991427;28;20219;-70
2021/04/21 11:22:14;;;;;;;3.83;0.95;;;24.70;83.90;;;;;;4989879;28;20256;-71
2021/04/21 11:24:40;;;;;;;1.15;0.40;;;24.60;82.30;;;;;;4991568;28;20178;-70
2021/04/21 11:27:39;;;;;;;0.20;0.20;;;24.10;86.00;;;;;;4991867;28;20171;-70
2021/04/21 11:30:34;;;;;;;0.17;0.17;;;24.30;83.50;;;;;;4991704;28;20163;-69
2021/04/21 11:33:00;;;;;;;0.22;0.22;;;23.70;84.50;;;;;;4991553;28;20205;-70
2021/04/21 11:35:31;;;;;;;0.85;0.85;;;21.80;88.60;;;;;;4990896;28;20210;-68
2021/04/21 11:37:58;;;;;;;1.45;1.08;;;21.50;91.10;;;;;;4991675;28;20155;-69
2021/04/21 11:40:28;;;;;;;0.22;0.22;;;22.30;88.60;;;;;;4990548;28;20182;-69
2021/04/21 11:43:20;;;;;;;1.13;1.02;;;22.40;87.10;;;;;;4991153;28;20258;-69
2021/04/21 11:45:46;;;;;;;2.72;1.08;;;23.00;88.00;;;;;;4990196;28;20199;-68
2021/04/21 11:48:12;;;;;;;0.98;0.95;;;22.60;91.00;;;;;;4991089;28;20304;-69
2021/04/21 11:50:41;;;;;;;0.70;0.70;;;23.60;88.10;;;;;;4991229;28;20174;-69
2021/04/21 11:53:07;;;;;;;0.47;0.47;;;23.40;84.80;;;;;;4989640;28;20178;-69
2021/04/21 11:55:44;;;;;;;1.15;1.05;;;23.60;85.70;;;;;;4990931;28;20218;-68
2021/04/21 11:58:15;;;;;;;2.17;0.93;;;23.00;87.20;;;;;;4990015;28;20230;-69
2021/04/21 12:00:42;;;;;;;0.95;0.95;;;23.30;91.10;;;;;;4990993;28;20163;-68
2021/04/21 12:03:23;;;;;;;0.40;0.40;;;24.20;86.30;;;;;;4989374;28;20198;-70
2021/04/21 12:06:09;;;;;;;0.60;0.60;;;24.60;86.10;;;;;;4990862;28;20202;-69
2021/04/21 12:08:41;;;;;;;1.27;1.15;;;25.50;84.90;;;;;;4990764;28;20155;-70
2021/04/21 12:11:08;;;;;;;0.20;0.20;;;26.20;83.50;;;;;;4990829;28;20155;-69
2021/04/21 12:13:36;;;;;;;0.63;0.63;;;24.70;82.50;;;;;;4990220;28;20222;-68
2021/04/21 12:16:12;;;;;;;0.40;0.40;;;22.50;85.10;;;;;;4990411;28;20233;-68
2021/04/21 12:18:43;;;;;;;0.57;0.57;;;22.10;88.60;;;;;;4990500;28;20721;-69
2021/04/21 12:21:16;;;;;;;0.30;0.30;;;21.20;88.60;;;;;;4990352;28;20681;-69
2021/04/21 12:23:53;;;;;;;1.15;0.70;;;20.10;90.90;;;;;;4989199;28;20657;-71
2021/04/21 12:26:31;;;;;;;1.55;1.13;;;19.80;90.50;;;;;;4990181;28;20258;-69
2021/04/21 12:29:09;;;;;;;0.10;0.10;;;19.70;90.50;;;;;;4990371;28;20235;-68
2021/04/21 12:31:36;;;;;;;0.22;0.22;;;19.70;91.50;;;;;;4989949;28;20217;-68
2021/04/21 12:34:05;;;;;;;0.20;0.20;;;19.90;91.10;;;;;;4990340;28;20184;-69
2021/04/21 12:36:33;;;;;;;0.70;0.70;;;19.70;91.00;;;;;;4990206;28;20195;-68
2021/04/21 12:39:11;;;;;;;1.95;1.30;;;19.50;91.20;;;;;;4990194;28;20159;-68
2021/04/21 12:41:43;;;;;;;0.50;0.50;;;19.30;92.40;;;;;;4990156;28;20187;-69
2021/04/21 12:44:29;;;;;;;2.03;0.95;;;19.20;92.40;;;;;;4988692;28;20202;-71
2021/04/21 12:47:06;;;;;;;0.88;0.88;;;19.20;91.50;;;;;;4974598;28;20195;-69
2021/04/21 12:49:38;;;;;;;1.50;0.65;;;19.00;92.10;;;;;;4988788;28;20186;-69
2021/04/21 12:52:08;;;;;;;1.80;1.20;;;18.80;92.40;;;;;;4988370;28;20171;-69
2021/04/21 12:54:48;;;;;;;0.10;0.10;;;18.60;93.30;;;;;;4989490;28;20191;-70
2021/04/21 12:57:19;;;;;;;0.20;0.20;;;18.50;92.50;;;;;;4989261;28;20218;-69
2021/04/21 12:59:46;;;;;;;0.43;0.43;;;18.40;93.30;;;;;;4988952;28;20580;-69
2021/04/21 13:02:16;;;;;;;0.45;0.35;;;18.40;93.10;;;;;;4982416;28;20179;-69
2021/04/21 13:04:47;;;;;;;0.10;0.10;;;18.20;92.80;;;;;;4986882;28;20611;-68
2021/04/21 13:07:22;;;;;;;24.10;0.90;;;17.70;95.40;;;;;;4983935;28;20206;-69
2021/04/21 13:09:50;;;;;;;0.10;0.10;;;17.10;97.40;;;;;;4988513;28;20163;-69
2021/04/21 13:12:23;;;;;;;0.55;0.55;;;16.60;98.30;;;;;;4988561;28;20160;-69
2021/04/21 13:14:50;;;;;;;0.38;0.38;;;16.40;97.70;;;;;;4987509;28;20198;-69
2021/04/21 13:17:17;;;;;;;0.15;0.13;;;16.20;98.10;;;;;;4987706;28;20195;-69
2021/04/21 13:19:51;;;;;;;0.15;0.15;;;16.20;98.50;;;;;;4985968;28;20223;-69
2021/04/21 13:22:23;;;;;;;0.20;0.20;;;16.20;98.30;;;;;;4987969;28;20166;-68
2021/04/21 13:24:55;;;;;;;0.30;0.30;;;16.30;99.10;;;;;;4988308;28;20163;-68
2021/04/21 13:27:33;;;;;;;0.35;0.35;;;16.10;99.90;;;;;;4986937;28;20200;-68